Time;durP1;ratioP1;P1;durP2;ratioP2;P2;SDS_P1;SDS_P2;PMS_P1;PMS_P2;Temp;Humidity;BMP_temperature;BMP_pressure;BME280_temperature;BME280_humidity;BME280_pressure;Samples;Min_cycle;Max_cycle;Signal;HPM_P1;HPM_P2
2022/12/01 00:01:31;;;;;;;37.17;22.17;;;4.40;98.40;;;;;;5092692;28;20196;-68
2022/12/01 00:04:00;;;;;;;35.83;21.30;;;4.40;98.90;;;;;;5092828;28;20206;-66
2022/12/01 00:06:28;;;;;;;40.23;21.53;;;4.40;99.00;;;;;;5082653;28;20229;-67
2022/12/01 00:11:48;;;;;;;33.10;20.43;;;4.50;98.20;;;;;;5051480;28;20284;-67
2022/12/01 00:14:17;;;;;;;37.67;22.53;;;4.40;98.40;;;;;;5052106;28;20548;-69
2022/12/01 00:16:45;;;;;;;40.97;21.90;;;4.40;98.50;;;;;;5052030;28;20261;-66
2022/12/01 00:19:13;;;;;;;38.53;21.17;;;4.40;98.50;;;;;;5051967;28;20205;-67
2022/12/01 00:21:42;;;;;;;36.53;21.73;;;4.40;98.60;;;;;;5051526;28;20616;-67
2022/12/01 00:24:11;;;;;;;32.50;19.80;;;4.40;98.40;;;;;;5052020;28;20199;-66
2022/12/01 00:26:39;;;;;;;36.40;21.30;;;4.40;98.70;;;;;;5051771;28;20302;-68
2022/12/01 00:29:09;;;;;;;40.53;22.27;;;4.40;98.90;;;;;;5033126;28;20224;-67
2022/12/01 00:31:38;;;;;;;37.70;22.17;;;4.40;99.00;;;;;;5051499;28;20574;-70
2022/12/01 00:34:07;;;;;;;36.97;22.10;;;4.40;99.10;;;;;;5051579;28;20230;-67
2022/12/01 00:36:39;;;;;;;35.40;21.10;;;4.50;98.90;;;;;;5051305;28;20255;-66
2022/12/01 00:39:08;;;;;;;35.33;20.80;;;4.40;98.50;;;;;;5052498;28;20251;-66
2022/12/01 00:41:36;;;;;;;36.30;20.73;;;4.40;98.90;;;;;;5072154;28;20205;-68
2022/12/01 00:44:05;;;;;;;30.43;18.10;;;4.50;99.30;;;;;;5072320;28;20204;-66
2022/12/01 00:46:35;;;;;;;30.97;19.53;;;4.50;98.70;;;;;;5072697;28;20692;-68
2022/12/01 00:49:04;;;;;;;31.90;19.60;;;4.40;98.70;;;;;;5072054;28;20199;-73
2022/12/01 00:51:33;;;;;;;29.60;19.30;;;4.50;98.80;;;;;;5072097;28;20200;-67
2022/12/01 00:54:01;;;;;;;29.83;19.43;;;4.50;98.80;;;;;;5072239;28;20203;-70
2022/12/01 00:56:29;;;;;;;29.17;18.87;;;4.50;98.60;;;;;;5072081;28;20198;-69
2022/12/01 00:58:58;;;;;;;29.90;19.83;;;4.40;98.70;;;;;;5072150;28;20198;-70
2022/12/01 01:01:26;;;;;;;31.73;18.63;;;4.40;99.00;;;;;;5072081;28;20544;-68
2022/12/01 01:03:58;;;;;;;30.10;18.97;;;4.50;98.90;;;;;;5072442;28;20670;-70
2022/12/01 01:06:26;;;;;;;30.17;18.27;;;4.50;99.00;;;;;;5071813;28;20262;-67
2022/12/01 01:08:54;;;;;;;30.37;19.17;;;4.50;98.50;;;;;;5071936;28;20675;-67
2022/12/01 01:11:23;;;;;;;28.37;18.43;;;4.40;98.60;;;;;;5071843;28;20226;-69
2022/12/01 01:13:51;;;;;;;28.57;17.10;;;4.40;98.60;;;;;;5072014;28;20568;-66
2022/12/01 01:16:21;;;;;;;26.37;16.73;;;4.40;99.00;;;;;;5071883;28;20221;-67
2022/12/01 01:18:49;;;;;;;28.37;18.13;;;4.40;99.60;;;;;;5071710;28;20198;-68
2022/12/01 01:21:21;;;;;;;26.73;16.87;;;4.50;99.00;;;;;;5071660;28;20256;-67
2022/12/01 01:23:50;;;;;;;27.67;17.60;;;4.50;98.60;;;;;;5070931;28;20195;-66
2022/12/01 01:26:20;;;;;;;25.03;17.27;;;4.50;98.40;;;;;;5071702;28;20215;-67
2022/12/01 01:28:49;;;;;;;28.70;16.17;;;4.40;98.50;;;;;;5071792;28;20570;-67
2022/12/01 01:31:19;;;;;;;24.47;16.97;;;4.40;98.80;;;;;;5053640;28;20232;-69
2022/12/01 01:33:48;;;;;;;26.53;18.20;;;4.50;98.80;;;;;;5071718;28;20198;-66
2022/12/01 01:36:19;;;;;;;25.70;16.63;;;4.50;98.50;;;;;;5071350;28;20668;-68
2022/12/01 01:38:50;;;;;;;23.40;15.80;;;4.50;98.40;;;;;;5071545;28;20198;-67
2022/12/01 01:41:19;;;;;;;21.97;15.53;;;4.50;98.50;;;;;;5071595;28;20196;-67
2022/12/01 01:43:49;;;;;;;23.40;14.67;;;4.40;98.10;;;;;;5071300;28;20210;-66
2022/12/01 01:46:19;;;;;;;22.50;15.50;;;4.40;98.70;;;;;;5071624;28;20674;-73
2022/12/01 01:48:52;;;;;;;23.37;15.50;;;4.40;98.70;;;;;;5071508;28;20227;-73
2022/12/01 01:51:28;;;;;;;20.27;14.97;;;4.50;98.40;;;;;;5071277;28;20242;-73
2022/12/01 01:54:01;;;;;;;20.50;14.37;;;4.40;98.00;;;;;;5071435;28;20578;-73
2022/12/01 01:56:30;;;;;;;22.47;14.80;;;4.40;98.60;;;;;;5071622;28;20294;-69
2022/12/01 01:58:59;;;;;;;20.13;15.30;;;4.40;97.90;;;;;;5071596;28;20198;-71
2022/12/01 02:01:28;;;;;;;24.80;14.87;;;4.40;97.90;;;;;;5071327;28;20191;-66
2022/12/01 02:03:57;;;;;;;19.33;13.87;;;4.40;98.40;;;;;;5071554;28;20317;-67
2022/12/01 02:06:27;;;;;;;21.17;14.60;;;4.40;97.90;;;;;;5071084;28;20621;-68
2022/12/01 02:08:55;;;;;;;22.70;15.80;;;4.30;97.90;;;;;;5071373;28;20217;-67
2022/12/01 02:11:58;;;;;;;21.77;14.97;;;4.30;98.20;;;;;;5071384;28;20231;-68
2022/12/01 02:15:01;;;;;;;20.40;14.57;;;4.30;98.10;;;;;;5071263;28;20194;-66
2022/12/01 02:17:36;;;;;;;20.50;13.43;;;4.20;98.20;;;;;;4989731;28;20596;-67
2022/12/01 02:21:07;;;;;;;19.93;13.80;;;4.30;98.30;;;;;;4990024;28;20203;-66
2022/12/01 02:24:06;;;;;;;18.50;13.70;;;4.30;98.40;;;;;;4950999;29;20211;-67
2022/12/01 02:26:44;;;;;;;18.67;13.23;;;4.30;98.20;;;;;;4951148;29;20201;-66
2022/12/01 02:29:56;;;;;;;20.70;14.33;;;4.30;98.40;;;;;;4951143;29;20258;-67
2022/12/01 02:32:31;;;;;;;22.87;14.70;;;4.30;98.30;;;;;;4951122;29;20215;-74
2022/12/01 02:35:08;;;;;;;20.57;14.07;;;4.40;97.80;;;;;;4952256;28;20207;-73
2022/12/01 02:37:43;;;;;;;20.53;13.97;;;4.40;97.60;;;;;;4954508;29;20441;-73
2022/12/01 02:40:19;;;;;;;22.37;15.00;;;4.40;98.20;;;;;;4954778;29;20284;-73
2022/12/01 02:42:53;;;;;;;21.30;14.33;;;4.40;98.40;;;;;;4954501;29;20682;-71
2022/12/01 02:45:30;;;;;;;22.93;14.63;;;4.40;97.50;;;;;;4954559;29;20205;-73
2022/12/01 02:48:04;;;;;;;18.83;14.50;;;4.40;97.60;;;;;;4954368;29;20198;-72
2022/12/01 02:50:35;;;;;;;21.37;15.67;;;4.40;97.30;;;;;;4954425;29;20640;-70
2022/12/01 02:53:05;;;;;;;20.27;14.03;;;4.40;98.10;;;;;;4955723;28;20335;-72
2022/12/01 02:55:34;;;;;;;20.67;15.13;;;4.40;98.00;;;;;;5074438;28;20283;-73
2022/12/01 02:58:02;;;;;;;20.90;15.17;;;4.50;97.90;;;;;;5074569;28;20250;-73
2022/12/01 03:00:31;;;;;;;19.30;14.37;;;4.50;97.30;;;;;;5074305;28;20207;-68
2022/12/01 03:03:19;;;;;;;22.63;14.73;;;4.50;97.30;;;;;;5074492;28;20193;-67
2022/12/01 03:05:57;;;;;;;21.97;15.57;;;4.50;97.50;;;;;;5074072;28;20234;-69
2022/12/01 03:08:35;;;;;;;18.90;13.83;;;4.40;97.80;;;;;;5074142;28;20194;-73
2022/12/01 03:11:03;;;;;;;21.33;14.93;;;4.40;97.70;;;;;;5074131;28;20703;-67
2022/12/01 03:13:42;;;;;;;22.60;15.40;;;4.30;98.00;;;;;;5074055;28;20545;-67
2022/12/01 03:16:15;;;;;;;22.93;15.33;;;4.40;98.10;;;;;;5073992;28;20200;-73
2022/12/01 03:18:52;;;;;;;25.23;16.63;;;4.40;98.30;;;;;;5074080;28;20192;-72
2022/12/01 03:21:26;;;;;;;24.40;14.97;;;4.50;98.00;;;;;;5073804;28;20688;-71
2022/12/01 03:24:00;;;;;;;25.13;15.53;;;4.30;97.90;;;;;;5073805;28;20195;-72
2022/12/01 03:26:32;;;;;;;23.37;16.17;;;4.30;98.60;;;;;;5073838;28;20200;-74
2022/12/01 03:29:05;;;;;;;24.33;16.43;;;4.30;98.80;;;;;;5073885;28;20198;-72
2022/12/01 03:31:39;;;;;;;22.57;16.10;;;4.30;98.80;;;;;;5073816;28;20322;-68
2022/12/01 03:34:14;;;;;;;24.90;16.37;;;4.30;99.00;;;;;;5073899;28;20293;-66
2022/12/01 03:36:46;;;;;;;26.30;17.00;;;4.40;99.10;;;;;;5074081;28;20214;-67
2022/12/01 03:39:20;;;;;;;23.47;16.50;;;4.30;98.60;;;;;;5073722;28;20211;-69
2022/12/01 03:41:53;;;;;;;26.67;17.63;;;4.30;99.00;;;;;;5073760;28;20208;-71
2022/12/01 03:44:29;;;;;;;22.47;16.17;;;4.30;99.20;;;;;;5073566;28;20222;-67
2022/12/01 03:47:01;;;;;;;22.37;16.33;;;4.30;99.10;;;;;;5072612;28;20193;-74
2022/12/01 03:49:31;;;;;;;25.07;17.27;;;4.40;99.30;;;;;;5073565;28;20196;-74
2022/12/01 03:52:10;;;;;;;25.23;16.63;;;4.30;99.30;;;;;;5073312;28;20312;-74
2022/12/01 03:54:49;;;;;;;25.23;17.27;;;4.30;99.10;;;;;;5073526;28;20194;-73
2022/12/01 03:57:24;;;;;;;27.50;17.87;;;4.30;99.50;;;;;;5073353;28;20223;-71
2022/12/01 03:59:53;;;;;;;25.90;17.37;;;4.40;99.30;;;;;;5073250;28;20227;-72
2022/12/01 04:02:24;;;;;;;25.53;16.93;;;4.40;99.00;;;;;;5073145;28;20215;-66
2022/12/01 04:04:54;;;;;;;23.87;17.67;;;4.40;98.90;;;;;;5073396;28;20246;-67
2022/12/01 04:07:22;;;;;;;25.57;17.37;;;4.40;99.00;;;;;;5073018;28;20231;-68
2022/12/01 04:09:51;;;;;;;29.00;19.37;;;4.50;98.90;;;;;;5073101;28;20700;-66
2022/12/01 04:15:11;;;;;;;26.10;17.00;;;4.50;98.50;;;;;;5069532;28;20676;-70
2022/12/01 04:17:42;;;;;;;23.30;17.30;;;4.50;98.50;;;;;;5054893;28;20663;-71
2022/12/01 04:20:13;;;;;;;24.33;17.07;;;4.60;98.90;;;;;;5072823;28;20204;-73
2022/12/01 04:22:42;;;;;;;25.97;17.53;;;4.60;98.30;;;;;;5072965;28;20632;-72
2022/12/01 04:25:11;;;;;;;20.33;15.83;;;4.60;98.10;;;;;;5072676;28;20244;-73
2022/12/01 04:27:39;;;;;;;25.03;17.93;;;4.60;97.80;;;;;;5072687;28;20204;-73
2022/12/01 04:30:09;;;;;;;24.00;17.23;;;4.60;98.10;;;;;;5072659;28;20691;-72
2022/12/01 04:32:39;;;;;;;26.07;16.83;;;4.50;97.80;;;;;;5072634;28;20586;-72
2022/12/01 04:35:08;;;;;;;24.37;16.47;;;4.50;97.70;;;;;;5072476;28;20219;-72
2022/12/01 04:37:39;;;;;;;22.67;16.23;;;4.50;97.80;;;;;;5072414;28;20342;-73
2022/12/01 04:40:08;;;;;;;20.60;14.93;;;4.50;98.20;;;;;;5072420;28;20231;-72
2022/12/01 04:42:37;;;;;;;23.07;16.20;;;4.50;97.60;;;;;;5054619;28;20358;-70
2022/12/01 04:45:06;;;;;;;24.30;17.13;;;4.40;97.60;;;;;;5072418;28;20192;-68
2022/12/01 04:47:34;;;;;;;24.53;17.67;;;4.40;98.20;;;;;;5072494;28;20198;-70
2022/12/01 04:50:02;;;;;;;24.00;16.33;;;4.40;97.70;;;;;;5072270;28;20206;-68
2022/12/01 04:52:30;;;;;;;23.87;16.30;;;4.40;97.80;;;;;;5072036;28;20732;-68
2022/12/01 04:55:04;;;;;;;20.67;15.40;;;4.50;97.90;;;;;;5072184;28;20194;-69
2022/12/01 04:57:32;;;;;;;25.77;17.57;;;4.50;97.60;;;;;;5071869;28;20717;-67
2022/12/01 05:00:00;;;;;;;21.80;15.83;;;4.50;97.40;;;;;;5072118;28;20596;-66
2022/12/01 05:02:28;;;;;;;20.03;15.17;;;4.50;97.10;;;;;;5072118;28;20193;-66
2022/12/01 05:04:57;;;;;;;19.97;14.93;;;4.50;97.00;;;;;;5072130;28;20282;-67
2022/12/01 05:07:25;;;;;;;22.33;15.77;;;4.50;97.10;;;;;;5071621;28;20692;-67
2022/12/01 05:09:53;;;;;;;23.80;16.77;;;4.50;97.60;;;;;;5072020;28;20243;-68
2022/12/01 05:12:23;;;;;;;21.20;15.67;;;4.50;97.40;;;;;;5071818;28;20229;-69
2022/12/01 05:14:52;;;;;;;19.07;14.80;;;4.50;96.30;;;;;;5071984;28;20194;-68
2022/12/01 05:17:20;;;;;;;18.40;14.70;;;4.40;96.70;;;;;;5072099;28;20201;-73
2022/12/01 05:22:34;;;;;;;22.23;14.63;;;4.40;97.20;;;;;;5071668;28;20204;-73
2022/12/01 05:25:22;;;;;;;23.03;14.53;;;4.40;97.20;;;;;;5071880;28;20605;-70
2022/12/01 05:27:52;;;;;;;20.07;14.83;;;4.30;97.20;;;;;;5071802;28;20223;-71
2022/12/01 05:30:20;;;;;;;21.27;14.63;;;4.40;97.90;;;;;;5071690;28;20197;-71
2022/12/01 05:32:54;;;;;;;20.00;13.90;;;4.40;97.90;;;;;;5071603;28;20220;-67
2022/12/01 05:35:22;;;;;;;21.93;14.73;;;4.50;97.40;;;;;;5071646;28;20252;-68
2022/12/01 05:37:50;;;;;;;20.10;14.23;;;4.30;96.70;;;;;;5071516;28;20222;-68
2022/12/01 05:40:19;;;;;;;22.90;15.20;;;4.20;97.30;;;;;;5071684;28;20219;-71
2022/12/01 05:42:47;;;;;;;20.40;14.40;;;4.30;97.70;;;;;;5071602;28;20208;-67
2022/12/01 05:45:17;;;;;;;18.70;14.27;;;4.30;97.60;;;;;;5071561;28;20207;-68
2022/12/01 05:47:45;;;;;;;18.97;14.03;;;4.40;97.50;;;;;;5071572;28;20270;-69
2022/12/01 05:50:14;;;;;;;21.00;14.17;;;4.50;97.20;;;;;;5071692;28;20206;-68
2022/12/01 05:52:42;;;;;;;18.10;14.23;;;4.40;96.10;;;;;;5071362;28;20218;-66
2022/12/01 05:55:10;;;;;;;19.60;13.83;;;4.30;96.10;;;;;;5071370;28;20669;-66
2022/12/01 05:57:39;;;;;;;19.57;14.00;;;4.40;96.90;;;;;;5071413;28;20190;-65
2022/12/01 06:00:08;;;;;;;17.10;12.97;;;4.40;96.40;;;;;;5071594;28;20201;-68
2022/12/01 06:02:42;;;;;;;18.07;13.10;;;4.30;96.80;;;;;;5071494;28;20227;-70
2022/12/01 06:05:10;;;;;;;17.90;13.97;;;4.40;96.30;;;;;;5071239;28;20199;-67
2022/12/01 06:07:39;;;;;;;19.50;13.37;;;4.20;96.50;;;;;;5071019;28;20318;-71
2022/12/01 06:10:09;;;;;;;22.90;15.43;;;4.30;97.20;;;;;;5072801;28;21179;-67
2022/12/01 06:12:38;;;;;;;17.57;13.73;;;4.30;97.00;;;;;;5075154;28;20324;-67
2022/12/01 06:15:07;;;;;;;21.27;13.93;;;4.30;97.20;;;;;;5057188;28;20645;-71
2022/12/01 06:17:36;;;;;;;21.53;14.03;;;4.30;97.20;;;;;;5075254;28;20206;-66
2022/12/01 06:20:11;;;;;;;23.40;15.30;;;4.40;97.50;;;;;;5075025;28;20208;-66
2022/12/01 06:22:39;;;;;;;21.20;14.10;;;4.50;96.70;;;;;;5074736;28;20194;-66
2022/12/01 06:25:09;;;;;;;20.43;13.87;;;4.40;95.60;;;;;;5074935;28;20633;-67
2022/12/01 06:27:37;;;;;;;19.63;13.17;;;4.20;96.00;;;;;;5075137;28;20204;-66
2022/12/01 06:30:07;;;;;;;17.03;12.77;;;4.20;96.30;;;;;;5074806;28;20193;-67
2022/12/01 06:32:36;;;;;;;17.07;13.63;;;4.10;96.70;;;;;;5074763;28;20322;-67
2022/12/01 06:35:05;;;;;;;15.77;12.30;;;4.00;96.60;;;;;;5074773;28;20211;-71
2022/12/01 06:37:35;;;;;;;20.20;13.13;;;4.00;96.50;;;;;;5074268;28;20258;-65
2022/12/01 06:40:03;;;;;;;19.50;13.70;;;3.90;96.90;;;;;;5074494;28;20204;-69
2022/12/01 06:42:32;;;;;;;17.83;12.93;;;3.90;97.50;;;;;;5074494;28;20202;-67
2022/12/01 06:45:00;;;;;;;20.07;12.93;;;4.00;97.60;;;;;;5074634;28;20206;-66
2022/12/01 06:47:28;;;;;;;19.80;13.20;;;4.00;97.00;;;;;;5074496;28;20200;-69
2022/12/01 06:49:57;;;;;;;18.40;13.10;;;4.10;97.00;;;;;;5074431;28;20204;-65
2022/12/01 06:52:25;;;;;;;19.93;12.83;;;4.10;96.30;;;;;;5074251;28;20208;-70
2022/12/01 06:54:54;;;;;;;22.10;14.73;;;4.00;96.60;;;;;;5056247;28;20621;-68
2022/12/01 06:57:23;;;;;;;19.90;14.10;;;4.10;97.40;;;;;;5074396;28;20202;-65
2022/12/01 06:59:51;;;;;;;19.23;13.77;;;4.30;97.30;;;;;;5074356;28;20195;-70
2022/12/01 07:02:20;;;;;;;22.20;15.23;;;4.20;96.10;;;;;;5074174;28;20234;-68
2022/12/01 07:04:48;;;;;;;21.07;15.17;;;4.20;96.30;;;;;;5074206;28;20615;-67
2022/12/01 07:07:16;;;;;;;23.37;14.87;;;4.10;96.50;;;;;;5073877;28;20237;-71
2022/12/01 07:09:45;;;;;;;24.30;16.20;;;4.10;96.90;;;;;;5074168;28;20213;-67
2022/12/01 07:12:14;;;;;;;20.97;14.43;;;4.10;97.20;;;;;;5074091;28;20192;-66
2022/12/01 07:14:43;;;;;;;20.43;14.07;;;4.10;96.90;;;;;;5074060;28;20714;-70
2022/12/01 07:17:11;;;;;;;20.37;14.30;;;4.10;96.90;;;;;;5073981;28;20219;-67
2022/12/01 07:19:39;;;;;;;25.70;15.77;;;4.10;97.10;;;;;;5073767;28;20205;-69
2022/12/01 07:22:08;;;;;;;20.47;14.77;;;4.00;97.30;;;;;;5072582;28;20268;-68
2022/12/01 07:24:36;;;;;;;21.07;13.80;;;4.00;97.40;;;;;;5073861;28;20206;-66
2022/12/01 07:27:04;;;;;;;21.33;15.50;;;4.10;97.40;;;;;;5073812;28;20197;-73
2022/12/01 07:29:34;;;;;;;25.80;15.63;;;4.20;97.30;;;;;;5055784;28;20199;-67
2022/12/01 07:32:02;;;;;;;23.13;14.90;;;4.20;97.00;;;;;;5073647;28;20669;-66
2022/12/01 07:34:30;;;;;;;22.97;15.63;;;4.20;96.60;;;;;;5073532;28;20684;-67
2022/12/01 07:36:59;;;;;;;24.40;15.97;;;4.20;96.60;;;;;;5073828;28;20194;-67
2022/12/01 07:39:27;;;;;;;20.57;15.37;;;4.30;96.30;;;;;;5073520;28;20206;-71
2022/12/01 07:41:55;;;;;;;21.77;15.30;;;4.20;96.30;;;;;;5073567;28;20673;-67
2022/12/01 07:44:24;;;;;;;23.87;15.63;;;4.20;96.70;;;;;;5073589;28;20212;-68
2022/12/01 07:46:54;;;;;;;23.73;15.07;;;4.10;96.40;;;;;;5073332;28;20206;-67
2022/12/01 07:49:22;;;;;;;25.97;17.43;;;4.10;97.10;;;;;;5073310;28;20643;-65
2022/12/01 07:51:50;;;;;;;43.23;26.67;;;4.10;97.20;;;;;;5073481;28;20605;-69
2022/12/01 07:54:20;;;;;;;23.40;15.87;;;4.00;97.40;;;;;;5072993;28;20237;-67
2022/12/01 07:56:48;;;;;;;23.40;15.90;;;4.00;97.60;;;;;;5067559;28;20538;-72
2022/12/01 07:59:16;;;;;;;22.87;16.23;;;3.90;97.60;;;;;;5063701;28;20662;-66
2022/12/01 08:01:45;;;;;;;22.23;15.53;;;4.00;97.30;;;;;;5053431;28;20198;-66
2022/12/01 08:04:15;;;;;;;21.90;14.77;;;4.00;97.80;;;;;;5053557;28;20203;-69
2022/12/01 08:06:43;;;;;;;49.47;28.43;;;4.00;97.20;;;;;;5052866;28;20227;-66
2022/12/01 08:09:11;;;;;;;24.33;17.03;;;4.00;99.80;;;;;;5053357;28;20222;-67
2022/12/01 08:11:39;;;;;;;42.47;22.80;;;4.20;98.60;;;;;;5052662;28;20242;-66
2022/12/01 08:14:08;;;;;;;20.30;14.33;;;4.30;98.60;;;;;;5051376;28;20220;-68
2022/12/01 08:16:36;;;;;;;25.37;18.27;;;4.10;95.80;;;;;;5053301;28;20712;-70
2022/12/01 08:19:05;;;;;;;21.57;15.70;;;4.00;97.20;;;;;;5053478;28;20227;-67
2022/12/01 08:21:36;;;;;;;39.37;24.43;;;4.00;97.30;;;;;;5053390;28;20204;-67
2022/12/01 08:24:05;;;;;;;22.30;16.13;;;4.00;99.10;;;;;;5053105;28;20592;-66
2022/12/01 08:26:33;;;;;;;20.03;14.20;;;4.10;97.60;;;;;;5068520;28;20272;-66
2022/12/01 08:29:02;;;;;;;20.80;14.67;;;4.10;96.70;;;;;;5069720;28;20245;-67
2022/12/01 08:31:34;;;;;;;18.67;13.53;;;4.00;96.60;;;;;;5072908;28;20196;-68
2022/12/01 08:34:05;;;;;;;23.20;16.60;;;3.90;97.00;;;;;;5072549;28;20230;-69
2022/12/01 08:36:36;;;;;;;26.17;18.30;;;3.90;98.40;;;;;;5072489;28;20703;-66
2022/12/01 08:39:04;;;;;;;19.27;13.97;;;4.00;97.50;;;;;;5072643;28;20725;-67
2022/12/01 08:41:32;;;;;;;31.03;18.70;;;4.10;97.60;;;;;;5072108;28;20204;-66
2022/12/01 08:44:01;;;;;;;28.57;18.77;;;4.30;98.80;;;;;;5072860;28;20195;-65
2022/12/01 08:46:32;;;;;;;19.53;14.60;;;4.30;97.90;;;;;;5072524;28;20670;-65
2022/12/01 08:49:01;;;;;;;25.27;17.37;;;4.40;96.40;;;;;;5072701;28;20201;-65
2022/12/01 08:51:29;;;;;;;26.50;17.77;;;4.50;96.70;;;;;;5072529;28;20206;-66
2022/12/01 08:54:00;;;;;;;25.57;16.23;;;4.50;95.30;;;;;;5072319;28;20232;-65
2022/12/01 08:56:31;;;;;;;21.93;16.63;;;4.50;95.70;;;;;;5071484;28;20298;-67
2022/12/01 08:58:59;;;;;;;21.50;14.97;;;4.60;95.70;;;;;;5072009;28;20219;-67
2022/12/01 09:01:28;;;;;;;21.43;15.00;;;4.60;94.70;;;;;;5072322;28;20226;-66
2022/12/01 09:04:06;;;;;;;26.30;17.53;;;4.70;95.00;;;;;;5072391;28;20295;-64
2022/12/01 09:06:38;;;;;;;21.07;15.13;;;4.70;94.90;;;;;;5071645;28;20708;-66
2022/12/01 09:09:10;;;;;;;17.07;14.10;;;4.70;93.30;;;;;;5071726;28;20211;-66
2022/12/01 09:11:39;;;;;;;22.23;16.33;;;4.60;93.80;;;;;;5072138;28;20215;-67
2022/12/01 09:14:08;;;;;;;21.33;14.23;;;4.50;94.20;;;;;;5072230;28;20609;-66
2022/12/01 09:16:37;;;;;;;21.07;15.17;;;4.60;94.30;;;;;;5071676;28;20208;-66
2022/12/01 09:19:05;;;;;;;19.17;14.73;;;4.60;95.00;;;;;;5072064;28;20190;-65
2022/12/01 09:21:36;;;;;;;23.73;16.53;;;4.60;92.80;;;;;;5072069;28;20196;-66
2022/12/01 09:24:06;;;;;;;20.47;15.07;;;4.60;94.20;;;;;;5071365;28;20279;-67
2022/12/01 09:26:36;;;;;;;17.37;14.33;;;4.70;93.90;;;;;;5071679;28;20223;-66
2022/12/01 09:29:09;;;;;;;21.37;15.23;;;4.70;92.60;;;;;;5071687;28;20197;-66
2022/12/01 09:31:37;;;;;;;19.10;13.57;;;4.70;92.80;;;;;;5071961;28;20194;-70
2022/12/01 09:34:07;;;;;;;14.70;11.10;;;4.60;92.80;;;;;;5071659;28;20239;-66
2022/12/01 09:36:37;;;;;;;14.53;9.93;;;4.50;91.50;;;;;;5071657;28;20207;-66
2022/12/01 09:39:07;;;;;;;21.40;14.67;;;4.40;91.60;;;;;;5071244;28;20203;-65
2022/12/01 09:41:40;;;;;;;28.67;17.67;;;4.20;92.60;;;;;;5071898;28;20279;-65
2022/12/01 09:44:19;;;;;;;16.00;12.20;;;4.30;95.00;;;;;;5070944;28;20225;-66
2022/12/01 09:46:51;;;;;;;15.50;11.47;;;4.30;93.40;;;;;;5070593;28;20745;-65
2022/12/01 09:49:24;;;;;;;15.13;11.13;;;4.20;93.30;;;;;;5070663;28;20644;-67
2022/12/01 09:51:54;;;;;;;14.87;11.00;;;4.30;93.60;;;;;;5070892;28;20230;-66
2022/12/01 09:54:23;;;;;;;13.20;9.33;;;4.30;92.90;;;;;;5069256;28;20787;-65
2022/12/01 09:56:54;;;;;;;10.83;8.90;;;4.20;92.20;;;;;;5071384;28;20680;-70
2022/12/01 09:59:25;;;;;;;11.37;9.13;;;4.20;92.20;;;;;;5071516;28;20259;-66
2022/12/01 10:01:58;;;;;;;11.00;8.70;;;4.20;92.90;;;;;;5071831;28;20199;-65
2022/12/01 10:04:33;;;;;;;11.33;8.37;;;4.20;92.50;;;;;;5071397;28;20206;-66
2022/12/01 10:07:04;;;;;;;13.10;10.30;;;4.20;93.60;;;;;;5070783;28;20232;-69
2022/12/01 10:09:40;;;;;;;12.73;9.43;;;4.30;93.70;;;;;;5071352;28;20201;-66
2022/12/01 10:12:16;;;;;;;11.93;9.63;;;4.40;94.60;;;;;;5071468;28;20660;-67
2022/12/01 10:14:45;;;;;;;12.43;8.73;;;4.60;94.50;;;;;;5069906;28;20322;-66
2022/12/01 10:17:25;;;;;;;11.40;8.33;;;4.60;91.40;;;;;;5071411;28;20227;-65
2022/12/01 10:20:00;;;;;;;11.47;8.87;;;4.70;92.30;;;;;;5071381;28;20569;-66
2022/12/01 10:22:48;;;;;;;11.93;9.20;;;4.60;90.00;;;;;;5070574;28;20626;-66
2022/12/01 10:25:21;;;;;;;12.80;10.63;;;4.50;90.70;;;;;;5051318;28;20196;-66
2022/12/01 10:28:07;;;;;;;13.90;10.37;;;4.50;91.60;;;;;;5051104;28;20614;-67
2022/12/01 10:30:47;;;;;;;14.40;9.67;;;4.60;90.50;;;;;;5033283;28;20552;-68
2022/12/01 10:33:23;;;;;;;13.67;10.40;;;4.60;90.70;;;;;;5051335;28;20204;-66
2022/12/01 10:35:51;;;;;;;15.80;10.80;;;4.50;90.60;;;;;;5050728;28;20580;-66
2022/12/01 10:38:28;;;;;;;14.43;11.97;;;4.50;91.00;;;;;;5051003;28;20571;-70
2022/12/01 10:40:59;;;;;;;14.10;10.77;;;4.60;91.10;;;;;;5050887;28;20238;-67
2022/12/01 10:43:35;;;;;;;16.33;11.03;;;4.60;91.00;;;;;;5051230;28;20230;-67
2022/12/01 10:46:14;;;;;;;14.33;10.33;;;4.70;90.60;;;;;;5034050;28;20559;-68
2022/12/01 10:48:54;;;;;;;14.07;10.50;;;4.70;90.30;;;;;;5071183;28;20198;-66
2022/12/01 10:51:22;;;;;;;13.47;10.43;;;4.70;90.40;;;;;;5069852;28;20270;-65
2022/12/01 10:53:58;;;;;;;12.23;9.53;;;4.80;91.70;;;;;;5070199;28;20266;-66
2022/12/01 10:56:27;;;;;;;17.73;12.90;;;4.80;88.50;;;;;;5073167;28;20250;-67
2022/12/01 10:58:59;;;;;;;16.57;11.77;;;4.80;89.50;;;;;;5075046;28;20255;-66
2022/12/01 11:01:30;;;;;;;15.13;10.37;;;4.90;90.50;;;;;;5074186;28;20702;-66
2022/12/01 11:04:06;;;;;;;13.17;9.93;;;4.90;90.00;;;;;;5074108;28;20208;-72
2022/12/01 11:06:35;;;;;;;12.77;9.63;;;4.90;88.30;;;;;;5073533;28;20764;-67
2022/12/01 11:09:06;;;;;;;13.40;10.50;;;4.90;87.60;;;;;;5073640;28;20211;-71
2022/12/01 11:11:38;;;;;;;16.07;10.97;;;5.00;90.20;;;;;;5074544;28;20238;-66
2022/12/01 11:14:23;;;;;;;26.70;15.57;;;5.10;89.10;;;;;;5074087;28;20196;-66
2022/12/01 11:16:52;;;;;;;20.63;13.77;;;5.20;89.10;;;;;;5073536;28;20213;-66
2022/12/01 11:19:29;;;;;;;12.83;9.33;;;5.40;91.10;;;;;;5073973;28;20302;-66
2022/12/01 11:21:59;;;;;;;11.00;8.20;;;5.40;84.40;;;;;;5073708;28;20276;-67
2022/12/01 11:24:41;;;;;;;15.50;11.30;;;5.30;87.10;;;;;;5073507;28;20207;-67
2022/12/01 11:27:17;;;;;;;12.13;9.03;;;5.40;86.60;;;;;;5073499;28;20722;-71
2022/12/01 11:29:50;;;;;;;21.73;17.50;;;5.40;84.60;;;;;;5073421;28;20245;-65
2022/12/01 11:32:23;;;;;;;32.33;24.07;;;5.40;83.70;;;;;;5073557;28;20211;-66
2022/12/01 11:34:56;;;;;;;23.27;17.13;;;5.40;83.60;;;;;;5073416;28;20301;-69
2022/12/01 11:37:28;;;;;;;17.43;10.73;;;5.50;84.00;;;;;;5073050;28;20246;-73
2022/12/01 11:40:07;;;;;;;11.97;9.47;;;5.50;84.90;;;;;;5073527;28;20628;-68
2022/12/01 11:42:36;;;;;;;11.13;8.73;;;5.40;82.40;;;;;;5073650;28;20204;-67
2022/12/01 11:45:18;;;;;;;12.23;8.77;;;5.50;84.10;;;;;;5073362;28;20241;-71
2022/12/01 11:48:04;;;;;;;17.63;10.10;;;5.50;84.40;;;;;;5073608;28;20285;-67
2022/12/01 11:50:34;;;;;;;11.83;9.03;;;5.60;84.90;;;;;;5073221;28;20195;-67
2022/12/01 11:53:04;;;;;;;11.80;9.50;;;5.50;82.50;;;;;;5073376;28;20541;-67
2022/12/01 11:55:32;;;;;;;11.80;9.33;;;5.40;81.50;;;;;;5073055;28;20263;-65
2022/12/01 11:58:03;;;;;;;10.23;8.00;;;5.40;82.10;;;;;;5073322;28;20197;-69
2022/12/01 12:00:45;;;;;;;12.73;8.60;;;5.30;79.80;;;;;;5073144;28;20532;-66
2022/12/01 12:03:21;;;;;;;13.63;8.10;;;5.20;80.00;;;;;;5073078;28;20577;-66
2022/12/01 12:05:59;;;;;;;10.10;8.50;;;5.10;82.00;;;;;;5072798;28;20231;-67
2022/12/01 12:09:03;;;;;;;10.87;7.63;;;5.00;81.80;;;;;;5072295;28;20201;-67
2022/12/01 12:11:39;;;;;;;11.23;7.90;;;5.10;81.90;;;;;;5072674;28;20188;-66
2022/12/01 12:14:28;;;;;;;11.67;8.47;;;5.00;81.30;;;;;;5072751;28;20202;-67
2022/12/01 12:17:28;;;;;;;12.27;7.73;;;5.10;83.10;;;;;;5072784;28;20635;-68
2022/12/01 12:20:19;;;;;;;8.27;7.10;;;5.20;82.40;;;;;;4991290;28;20249;-66
2022/12/01 12:22:58;;;;;;;8.13;7.03;;;5.20;81.40;;;;;;4991253;28;20204;-67
2022/12/01 12:25:35;;;;;;;9.00;7.63;;;5.20;82.00;;;;;;4991155;28;20316;-66
2022/12/01 12:28:18;;;;;;;11.50;8.53;;;5.20;80.60;;;;;;4991176;28;20691;-67
2022/12/01 12:30:55;;;;;;;8.47;7.37;;;5.20;82.30;;;;;;4990823;28;20575;-67
2022/12/01 12:33:45;;;;;;;8.97;7.43;;;5.20;82.00;;;;;;4991311;28;20203;-67
2022/12/01 12:36:20;;;;;;;9.50;7.50;;;5.20;80.60;;;;;;4990948;28;20233;-66
2022/12/01 12:39:01;;;;;;;10.17;7.73;;;5.20;80.30;;;;;;4991167;28;20204;-66
2022/12/01 12:41:35;;;;;;;9.00;7.80;;;5.20;81.20;;;;;;4990893;28;20210;-72
2022/12/01 12:44:23;;;;;;;10.50;8.13;;;5.10;81.00;;;;;;4990924;28;20286;-68
2022/12/01 12:47:01;;;;;;;13.13;9.37;;;5.10;82.20;;;;;;4990822;28;20207;-68
2022/12/01 12:49:41;;;;;;;16.47;10.37;;;5.20;81.60;;;;;;4990810;28;20619;-66
2022/12/01 12:52:14;;;;;;;14.47;10.10;;;5.20;82.10;;;;;;4988462;28;20215;-67
2022/12/01 12:54:47;;;;;;;10.60;7.93;;;5.10;81.80;;;;;;4991457;28;20203;-65
2022/12/01 12:57:26;;;;;;;13.13;9.13;;;5.10;81.60;;;;;;5028044;28;20264;-66
2022/12/01 12:59:59;;;;;;;13.63;9.27;;;5.10;82.40;;;;;;5051758;28;20279;-67
2022/12/01 13:02:34;;;;;;;13.77;9.17;;;5.00;82.30;;;;;;5051918;28;20615;-68
2022/12/01 13:05:12;;;;;;;13.00;8.73;;;5.00;83.30;;;;;;5052952;28;20206;-65
2022/12/01 13:07:46;;;;;;;11.70;8.10;;;5.00;82.70;;;;;;5051962;28;20238;-65
2022/12/01 13:10:25;;;;;;;14.57;10.00;;;5.00;83.60;;;;;;5051865;28;20200;-65
2022/12/01 13:13:00;;;;;;;13.93;9.03;;;4.90;83.30;;;;;;5052469;28;20669;-66